Aérodrome :
LOGIN :

S'inscrire | Disclaimer

   EN    FR    IT 

 










Légende :    VFR   VFR Marginal   IFR   IFR Intensif   IFR Très Intensif
Visi : 
Plafond : 
>= 8 km
>= 3000ft
5 à 8 km
1000 à 3000 ft
1500m à 5 km
500 à 1000 ft
800 à 1500m
200 à 500 ft
< 800m
< 200 ft
Symboles :   Orages  Brouillard  Fortes neiges  Fortes précipitations  Vent > 20 kt
SIGMETs :   Divers  Orages  Givrage  Turbulence  Onde Orograph.  Cendres Volcan.







- Altitude de l'aérodrome : 433 ft
- Code IATA : CCF
- Voir les cartes d'approche


LFMK - Carcassonne

DERNIER METAR :
  • 181530Z AUTO 08018KT 060V120 CAVOK 29/14 Q1011 TEMPO 09020G30KT

METARs EXPIRÉS :
  • 181500Z AUTO 08019KT CAVOK 29/13 Q1011 TEMPO 09020G30KT
  • 181430Z AUTO 08018KT 060V120 CAVOK 29/13 Q1011 TEMPO 09020G30KT
  • 181400Z AUTO 08017KT 050V130 CAVOK 30/14 Q1011 TEMPO 09020G30KT
  • 181330Z AUTO 08017KT CAVOK 29/14 Q1011 TEMPO 09020G30KT
  • 181300Z AUTO 09016KT 060V120 CAVOK 29/14 Q1012 TEMPO 09020G30KT

TAF TAF LFMK
Valide du 18 à 15h jusqu'au 19 à 15h UTC


181400Z 1815/1915 09012KT CAVOK
TEMPO 1815/1819 09020G30KT
TEMPO 1819/1824 09015G25KT
BECMG 1902/1904 28010KT
Pas de NOTAMs connus pour ce terrain.



MET'MAP, la Météo Aéronautique d'un coup d'oeil ! - Copyright ORBIFLY Décembre 2007 - Disclaimer

ORBIFLY MET'MAP TEAM :

Programmation & Développement : Alexandra Zaïnal
Conception & Développement : Baudouin d'Aumeries
Co-Programmation & Développement : Marc-Olivier Méhu
Soutien technique & logistique : Manuel Goepfert

Contact : metmap@orbifly.com




SOURCES & CREDITS :

   NOAA